sensor_id;sensor_type;location;lat;lon;timestamp;temperature;humidity
8892;DHT22;4482;54.332;10.118;2023-11-19T00:02:14;5.10;99.90
8892;DHT22;4482;54.332;10.118;2023-11-19T00:04:41;5.20;99.90
8892;DHT22;4482;54.332;10.118;2023-11-19T00:07:08;5.10;99.90
8892;DHT22;4482;54.332;10.118;2023-11-19T00:09:35;5.20;99.90
8892;DHT22;4482;54.332;10.118;2023-11-19T00:12:03;5.20;99.90
8892;DHT22;4482;54.332;10.118;2023-11-19T00:14:31;5.20;99.90
8892;DHT22;4482;54.332;10.118;2023-11-19T00:16:57;5.20;99.90
8892;DHT22;4482;54.332;10.118;2023-11-19T00:19:24;5.20;99.90
8892;DHT22;4482;54.332;10.118;2023-11-19T00:21:51;5.20;99.90
8892;DHT22;4482;54.332;10.118;2023-11-19T00:24:18;5.10;99.90
8892;DHT22;4482;54.332;10.118;2023-11-19T00:26:46;5.10;99.90
8892;DHT22;4482;54.332;10.118;2023-11-19T00:29:12;5.10;99.90
8892;DHT22;4482;54.332;10.118;2023-11-19T00:31:40;5.20;99.90
8892;DHT22;4482;54.332;10.118;2023-11-19T00:34:07;5.20;99.90
8892;DHT22;4482;54.332;10.118;2023-11-19T00:36:34;5.20;99.90
8892;DHT22;4482;54.332;10.118;2023-11-19T00:39:00;5.20;99.90
8892;DHT22;4482;54.332;10.118;2023-11-19T00:41:27;5.20;99.90
8892;DHT22;4482;54.332;10.118;2023-11-19T00:43:53;5.20;99.90
8892;DHT22;4482;54.332;10.118;2023-11-19T00:46:20;5.20;99.90
8892;DHT22;4482;54.332;10.118;2023-11-19T00:48:48;5.20;99.90
8892;DHT22;4482;54.332;10.118;2023-11-19T00:51:15;5.20;99.90
8892;DHT22;4482;54.332;10.118;2023-11-19T00:53:44;5.20;99.90
8892;DHT22;4482;54.332;10.118;2023-11-19T00:56:10;5.20;99.90
8892;DHT22;4482;54.332;10.118;2023-11-19T00:58:37;5.20;99.90
8892;DHT22;4482;54.332;10.118;2023-11-19T01:01:04;5.30;99.90
8892;DHT22;4482;54.332;10.118;2023-11-19T01:03:31;5.30;99.90
8892;DHT22;4482;54.332;10.118;2023-11-19T01:05:59;5.30;99.90
8892;DHT22;4482;54.332;10.118;2023-11-19T01:08:28;5.30;99.90
8892;DHT22;4482;54.332;10.118;2023-11-19T01:10:54;5.30;99.90
8892;DHT22;4482;54.332;10.118;2023-11-19T01:13:21;5.30;99.90
8892;DHT22;4482;54.332;10.118;2023-11-19T01:15:47;5.30;99.90
8892;DHT22;4482;54.332;10.118;2023-11-19T01:18:14;5.30;99.90
8892;DHT22;4482;54.332;10.118;2023-11-19T01:20:42;5.30;99.90
8892;DHT22;4482;54.332;10.118;2023-11-19T01:23:09;5.30;99.90
8892;DHT22;4482;54.332;10.118;2023-11-19T01:25:36;5.30;99.90
8892;DHT22;4482;54.332;10.118;2023-11-19T01:28:03;5.30;99.90
8892;DHT22;4482;54.332;10.118;2023-11-19T01:30:30;5.40;99.90
8892;DHT22;4482;54.332;10.118;2023-11-19T01:32:57;5.30;99.90
8892;DHT22;4482;54.332;10.118;2023-11-19T01:35:23;5.40;99.90
8892;DHT22;4482;54.332;10.118;2023-11-19T01:37:50;5.40;99.90
8892;DHT22;4482;54.332;10.118;2023-11-19T01:40:21;5.40;99.90
8892;DHT22;4482;54.332;10.118;2023-11-19T01:42:47;5.40;99.90
8892;DHT22;4482;54.332;10.118;2023-11-19T01:45:20;5.40;99.90
8892;DHT22;4482;54.332;10.118;2023-11-19T01:47:48;5.40;99.90
8892;DHT22;4482;54.332;10.118;2023-11-19T01:50:14;5.40;99.90
8892;DHT22;4482;54.332;10.118;2023-11-19T01:52:41;5.40;99.90
8892;DHT22;4482;54.332;10.118;2023-11-19T01:55:08;5.40;99.90
8892;DHT22;4482;54.332;10.118;2023-11-19T01:57:37;5.40;99.90
8892;DHT22;4482;54.332;10.118;2023-11-19T02:00:06;5.50;99.90
8892;DHT22;4482;54.332;10.118;2023-11-19T02:02:36;5.50;99.90
8892;DHT22;4482;54.332;10.118;2023-11-19T02:05:05;5.50;99.90
8892;DHT22;4482;54.332;10.118;2023-11-19T02:07:32;5.50;99.90
8892;DHT22;4482;54.332;10.118;2023-11-19T02:09:58;5.60;99.90
8892;DHT22;4482;54.332;10.118;2023-11-19T02:12:28;5.50;99.90
8892;DHT22;4482;54.332;10.118;2023-11-19T02:14:56;5.60;99.90
8892;DHT22;4482;54.332;10.118;2023-11-19T02:17:24;5.50;99.90
8892;DHT22;4482;54.332;10.118;2023-11-19T02:19:51;5.60;99.90
8892;DHT22;4482;54.332;10.118;2023-11-19T02:22:18;5.50;99.90
8892;DHT22;4482;54.332;10.118;2023-11-19T02:24:45;5.50;99.90
8892;DHT22;4482;54.332;10.118;2023-11-19T02:27:14;5.50;99.90
8892;DHT22;4482;54.332;10.118;2023-11-19T02:29:43;5.50;99.90
8892;DHT22;4482;54.332;10.118;2023-11-19T02:32:10;5.50;99.90
8892;DHT22;4482;54.332;10.118;2023-11-19T02:34:38;5.50;99.90
8892;DHT22;4482;54.332;10.118;2023-11-19T02:37:05;5.50;99.90
8892;DHT22;4482;54.332;10.118;2023-11-19T02:39:32;5.50;99.90
8892;DHT22;4482;54.332;10.118;2023-11-19T02:41:58;5.50;99.90
8892;DHT22;4482;54.332;10.118;2023-11-19T02:44:25;5.50;99.90
8892;DHT22;4482;54.332;10.118;2023-11-19T02:46:55;5.50;99.90
8892;DHT22;4482;54.332;10.118;2023-11-19T02:49:21;5.50;99.90
8892;DHT22;4482;54.332;10.118;2023-11-19T02:51:49;5.50;99.90
8892;DHT22;4482;54.332;10.118;2023-11-19T02:54:16;5.50;99.90
8892;DHT22;4482;54.332;10.118;2023-11-19T02:56:43;5.50;99.90
8892;DHT22;4482;54.332;10.118;2023-11-19T02:59:13;5.50;99.90
8892;DHT22;4482;54.332;10.118;2023-11-19T03:01:52;5.50;99.90
8892;DHT22;4482;54.332;10.118;2023-11-19T03:04:20;5.50;99.90
8892;DHT22;4482;54.332;10.118;2023-11-19T03:06:48;5.50;99.90
8892;DHT22;4482;54.332;10.118;2023-11-19T03:09:15;5.50;99.90
8892;DHT22;4482;54.332;10.118;2023-11-19T03:11:41;5.50;99.90
8892;DHT22;4482;54.332;10.118;2023-11-19T03:14:08;5.60;99.90
8892;DHT22;4482;54.332;10.118;2023-11-19T03:16:34;5.60;99.90
8892;DHT22;4482;54.332;10.118;2023-11-19T03:19:01;5.60;99.90
8892;DHT22;4482;54.332;10.118;2023-11-19T03:21:30;5.60;99.90
8892;DHT22;4482;54.332;10.118;2023-11-19T03:23:57;5.60;99.90
8892;DHT22;4482;54.332;10.118;2023-11-19T03:26:25;5.60;99.90
8892;DHT22;4482;54.332;10.118;2023-11-19T03:28:52;5.60;99.90
8892;DHT22;4482;54.332;10.118;2023-11-19T03:31:19;5.60;99.90
8892;DHT22;4482;54.332;10.118;2023-11-19T03:33:46;5.60;99.90
8892;DHT22;4482;54.332;10.118;2023-11-19T03:36:13;5.60;99.90
8892;DHT22;4482;54.332;10.118;2023-11-19T03:38:41;5.60;99.90
8892;DHT22;4482;54.332;10.118;2023-11-19T03:41:11;5.60;99.90
8892;DHT22;4482;54.332;10.118;2023-11-19T03:43:38;5.60;99.90
8892;DHT22;4482;54.332;10.118;2023-11-19T03:46:04;5.60;99.90
8892;DHT22;4482;54.332;10.118;2023-11-19T03:48:31;5.60;99.90
8892;DHT22;4482;54.332;10.118;2023-11-19T03:50:58;5.70;99.90
8892;DHT22;4482;54.332;10.118;2023-11-19T03:53:24;5.60;99.90
8892;DHT22;4482;54.332;10.118;2023-11-19T03:55:52;5.60;99.90
8892;DHT22;4482;54.332;10.118;2023-11-19T03:58:19;5.70;99.90
8892;DHT22;4482;54.332;10.118;2023-11-19T04:00:46;5.70;99.90
8892;DHT22;4482;54.332;10.118;2023-11-19T04:03:13;5.60;99.90
8892;DHT22;4482;54.332;10.118;2023-11-19T04:05:39;5.70;99.90
8892;DHT22;4482;54.332;10.118;2023-11-19T04:08:06;5.70;99.90
8892;DHT22;4482;54.332;10.118;2023-11-19T04:10:32;5.70;99.90
8892;DHT22;4482;54.332;10.118;2023-11-19T04:13:00;5.80;99.90
8892;DHT22;4482;54.332;10.118;2023-11-19T04:15:27;5.70;99.90
8892;DHT22;4482;54.332;10.118;2023-11-19T04:17:54;5.80;99.90
8892;DHT22;4482;54.332;10.118;2023-11-19T04:20:21;5.80;99.90
8892;DHT22;4482;54.332;10.118;2023-11-19T04:22:49;5.80;99.90
8892;DHT22;4482;54.332;10.118;2023-11-19T04:25:16;5.80;99.90
8892;DHT22;4482;54.332;10.118;2023-11-19T04:27:44;5.80;99.90
8892;DHT22;4482;54.332;10.118;2023-11-19T04:30:13;5.80;99.90
8892;DHT22;4482;54.332;10.118;2023-11-19T04:32:39;5.80;99.90
8892;DHT22;4482;54.332;10.118;2023-11-19T04:35:06;5.90;99.90
8892;DHT22;4482;54.332;10.118;2023-11-19T04:37:34;5.80;99.90
8892;DHT22;4482;54.332;10.118;2023-11-19T04:40:01;5.80;99.90
8892;DHT22;4482;54.332;10.118;2023-11-19T04:42:27;5.80;99.90
8892;DHT22;4482;54.332;10.118;2023-11-19T04:44:55;5.80;99.90
8892;DHT22;4482;54.332;10.118;2023-11-19T04:47:23;5.80;99.90
8892;DHT22;4482;54.332;10.118;2023-11-19T04:49:50;5.90;99.90
8892;DHT22;4482;54.332;10.118;2023-11-19T04:52:16;5.90;99.90
8892;DHT22;4482;54.332;10.118;2023-11-19T04:54:43;5.90;99.90
8892;DHT22;4482;54.332;10.118;2023-11-19T04:57:10;5.90;99.90
8892;DHT22;4482;54.332;10.118;2023-11-19T04:59:37;5.90;99.90
8892;DHT22;4482;54.332;10.118;2023-11-19T05:02:04;5.90;99.90
8892;DHT22;4482;54.332;10.118;2023-11-19T05:04:32;5.80;99.90
8892;DHT22;4482;54.332;10.118;2023-11-19T05:06:59;5.90;99.90
8892;DHT22;4482;54.332;10.118;2023-11-19T05:09:25;5.90;99.90
8892;DHT22;4482;54.332;10.118;2023-11-19T05:11:52;6.00;99.90
8892;DHT22;4482;54.332;10.118;2023-11-19T05:14:19;6.00;99.90
8892;DHT22;4482;54.332;10.118;2023-11-19T05:16:46;6.00;99.90
8892;DHT22;4482;54.332;10.118;2023-11-19T05:19:13;6.00;99.90
8892;DHT22;4482;54.332;10.118;2023-11-19T05:21:42;6.00;99.90
8892;DHT22;4482;54.332;10.118;2023-11-19T05:24:09;6.10;99.90
8892;DHT22;4482;54.332;10.118;2023-11-19T05:26:37;6.10;99.90
8892;DHT22;4482;54.332;10.118;2023-11-19T05:29:04;6.10;99.90
8892;DHT22;4482;54.332;10.118;2023-11-19T05:31:31;6.20;99.90
8892;DHT22;4482;54.332;10.118;2023-11-19T05:33:57;6.20;99.90
8892;DHT22;4482;54.332;10.118;2023-11-19T05:36:24;6.20;99.90
8892;DHT22;4482;54.332;10.118;2023-11-19T05:38:52;6.20;99.90
8892;DHT22;4482;54.332;10.118;2023-11-19T05:41:18;6.30;99.90
8892;DHT22;4482;54.332;10.118;2023-11-19T05:43:45;6.40;99.90
8892;DHT22;4482;54.332;10.118;2023-11-19T05:46:12;6.40;99.90
8892;DHT22;4482;54.332;10.118;2023-11-19T05:48:38;6.50;99.90
8892;DHT22;4482;54.332;10.118;2023-11-19T05:51:05;6.50;99.90
8892;DHT22;4482;54.332;10.118;2023-11-19T05:53:32;6.60;99.90
8892;DHT22;4482;54.332;10.118;2023-11-19T05:56:00;6.60;99.90
8892;DHT22;4482;54.332;10.118;2023-11-19T05:58:29;6.60;99.90
8892;DHT22;4482;54.332;10.118;2023-11-19T06:00:56;6.70;99.90
8892;DHT22;4482;54.332;10.118;2023-11-19T06:03:22;6.70;99.90
8892;DHT22;4482;54.332;10.118;2023-11-19T06:05:49;6.70;99.90
8892;DHT22;4482;54.332;10.118;2023-11-19T06:08:16;6.70;99.90
8892;DHT22;4482;54.332;10.118;2023-11-19T06:10:43;6.80;99.90
8892;DHT22;4482;54.332;10.118;2023-11-19T06:13:13;6.80;99.90
8892;DHT22;4482;54.332;10.118;2023-11-19T06:15:40;6.90;99.90
8892;DHT22;4482;54.332;10.118;2023-11-19T06:18:07;6.90;99.90
8892;DHT22;4482;54.332;10.118;2023-11-19T06:20:33;6.80;99.90
8892;DHT22;4482;54.332;10.118;2023-11-19T06:23:00;6.80;99.90
8892;DHT22;4482;54.332;10.118;2023-11-19T06:25:27;6.80;99.90
8892;DHT22;4482;54.332;10.118;2023-11-19T06:27:54;6.80;99.90
8892;DHT22;4482;54.332;10.118;2023-11-19T06:30:23;6.90;99.90
8892;DHT22;4482;54.332;10.118;2023-11-19T06:32:51;6.90;99.90
8892;DHT22;4482;54.332;10.118;2023-11-19T06:35:17;6.90;99.90
8892;DHT22;4482;54.332;10.118;2023-11-19T06:37:44;7.00;99.90
8892;DHT22;4482;54.332;10.118;2023-11-19T06:40:11;7.10;99.90
8892;DHT22;4482;54.332;10.118;2023-11-19T06:42:38;7.00;99.90
8892;DHT22;4482;54.332;10.118;2023-11-19T06:45:06;7.10;99.90
8892;DHT22;4482;54.332;10.118;2023-11-19T06:47:34;7.20;99.90
8892;DHT22;4482;54.332;10.118;2023-11-19T06:50:00;7.20;99.90
8892;DHT22;4482;54.332;10.118;2023-11-19T06:52:30;7.30;99.90
8892;DHT22;4482;54.332;10.118;2023-11-19T06:54:57;7.30;99.90
8892;DHT22;4482;54.332;10.118;2023-11-19T06:57:24;7.40;99.90
8892;DHT22;4482;54.332;10.118;2023-11-19T06:59:50;7.40;99.90
8892;DHT22;4482;54.332;10.118;2023-11-19T07:02:17;7.50;99.90
8892;DHT22;4482;54.332;10.118;2023-11-19T07:04:45;7.50;99.90
8892;DHT22;4482;54.332;10.118;2023-11-19T07:07:11;7.50;99.90
8892;DHT22;4482;54.332;10.118;2023-11-19T07:09:40;7.60;99.90
8892;DHT22;4482;54.332;10.118;2023-11-19T07:12:06;7.70;99.90
8892;DHT22;4482;54.332;10.118;2023-11-19T07:14:33;7.80;99.90
8892;DHT22;4482;54.332;10.118;2023-11-19T07:17:00;7.90;99.90
8892;DHT22;4482;54.332;10.118;2023-11-19T07:19:26;8.00;99.90
8892;DHT22;4482;54.332;10.118;2023-11-19T07:21:55;8.10;99.90
8892;DHT22;4482;54.332;10.118;2023-11-19T07:24:21;8.10;99.90
8892;DHT22;4482;54.332;10.118;2023-11-19T07:26:48;8.10;99.90
8892;DHT22;4482;54.332;10.118;2023-11-19T07:29:15;8.20;99.90
8892;DHT22;4482;54.332;10.118;2023-11-19T07:31:42;8.20;99.90
8892;DHT22;4482;54.332;10.118;2023-11-19T07:34:09;8.20;99.90
8892;DHT22;4482;54.332;10.118;2023-11-19T07:36:37;8.30;99.90
8892;DHT22;4482;54.332;10.118;2023-11-19T07:39:05;8.40;99.90
8892;DHT22;4482;54.332;10.118;2023-11-19T07:41:31;8.40;99.90
8892;DHT22;4482;54.332;10.118;2023-11-19T07:43:58;8.50;99.90
8892;DHT22;4482;54.332;10.118;2023-11-19T07:46:25;8.50;99.90
8892;DHT22;4482;54.332;10.118;2023-11-19T07:48:52;8.60;99.90
8892;DHT22;4482;54.332;10.118;2023-11-19T07:51:19;8.60;99.90
8892;DHT22;4482;54.332;10.118;2023-11-19T07:53:45;8.70;99.90
8892;DHT22;4482;54.332;10.118;2023-11-19T07:56:13;8.80;99.90
8892;DHT22;4482;54.332;10.118;2023-11-19T07:58:40;8.80;99.90
8892;DHT22;4482;54.332;10.118;2023-11-19T08:01:07;8.90;99.90
8892;DHT22;4482;54.332;10.118;2023-11-19T08:03:34;9.00;99.90
8892;DHT22;4482;54.332;10.118;2023-11-19T08:06:00;9.10;99.90
8892;DHT22;4482;54.332;10.118;2023-11-19T08:08:27;9.10;99.90
8892;DHT22;4482;54.332;10.118;2023-11-19T08:10:55;9.20;99.90
8892;DHT22;4482;54.332;10.118;2023-11-19T08:13:23;9.20;99.90
8892;DHT22;4482;54.332;10.118;2023-11-19T08:15:50;9.30;99.90
8892;DHT22;4482;54.332;10.118;2023-11-19T08:18:17;9.40;99.90
8892;DHT22;4482;54.332;10.118;2023-11-19T08:20:44;9.50;99.90
8892;DHT22;4482;54.332;10.118;2023-11-19T08:23:12;9.50;99.90
8892;DHT22;4482;54.332;10.118;2023-11-19T08:25:39;9.60;99.90
8892;DHT22;4482;54.332;10.118;2023-11-19T08:28:06;9.80;99.90
8892;DHT22;4482;54.332;10.118;2023-11-19T08:30:34;9.90;99.90
8892;DHT22;4482;54.332;10.118;2023-11-19T08:33:01;10.00;99.90
8892;DHT22;4482;54.332;10.118;2023-11-19T08:35:29;10.20;99.90
8892;DHT22;4482;54.332;10.118;2023-11-19T08:37:55;10.30;99.90
8892;DHT22;4482;54.332;10.118;2023-11-19T08:40:22;10.40;99.90
8892;DHT22;4482;54.332;10.118;2023-11-19T08:42:49;10.50;99.90
8892;DHT22;4482;54.332;10.118;2023-11-19T08:45:16;10.50;99.90
8892;DHT22;4482;54.332;10.118;2023-11-19T08:47:44;10.50;99.90
8892;DHT22;4482;54.332;10.118;2023-11-19T08:50:10;10.60;99.90
8892;DHT22;4482;54.332;10.118;2023-11-19T08:52:37;10.70;99.90
8892;DHT22;4482;54.332;10.118;2023-11-19T08:55:04;10.70;99.90
8892;DHT22;4482;54.332;10.118;2023-11-19T08:57:31;10.70;99.90
8892;DHT22;4482;54.332;10.118;2023-11-19T08:59:58;10.70;99.90
8892;DHT22;4482;54.332;10.118;2023-11-19T09:02:25;10.80;99.90
8892;DHT22;4482;54.332;10.118;2023-11-19T09:04:53;10.80;99.90
8892;DHT22;4482;54.332;10.118;2023-11-19T09:07:20;10.90;99.90
8892;DHT22;4482;54.332;10.118;2023-11-19T09:09:46;10.90;99.90
8892;DHT22;4482;54.332;10.118;2023-11-19T09:12:13;10.90;99.90
8892;DHT22;4482;54.332;10.118;2023-11-19T09:14:40;10.90;99.90
8892;DHT22;4482;54.332;10.118;2023-11-19T09:17:07;11.00;99.90
8892;DHT22;4482;54.332;10.118;2023-11-19T09:19:34;11.10;99.90
8892;DHT22;4482;54.332;10.118;2023-11-19T09:22:02;11.10;99.90
8892;DHT22;4482;54.332;10.118;2023-11-19T09:24:29;11.10;99.90
8892;DHT22;4482;54.332;10.118;2023-11-19T09:26:56;11.20;99.90
8892;DHT22;4482;54.332;10.118;2023-11-19T09:29:22;11.20;99.90
8892;DHT22;4482;54.332;10.118;2023-11-19T09:31:49;11.20;99.90
8892;DHT22;4482;54.332;10.118;2023-11-19T09:34:15;11.20;99.90
8892;DHT22;4482;54.332;10.118;2023-11-19T09:36:42;11.30;99.90
8892;DHT22;4482;54.332;10.118;2023-11-19T09:39:10;11.40;99.90
8892;DHT22;4482;54.332;10.118;2023-11-19T09:41:38;11.40;99.90
8892;DHT22;4482;54.332;10.118;2023-11-19T09:44:05;11.40;99.90
8892;DHT22;4482;54.332;10.118;2023-11-19T09:46:31;11.50;99.90
8892;DHT22;4482;54.332;10.118;2023-11-19T09:48:59;11.50;99.90
8892;DHT22;4482;54.332;10.118;2023-11-19T09:51:26;11.50;99.90
8892;DHT22;4482;54.332;10.118;2023-11-19T09:53:52;11.40;99.90
8892;DHT22;4482;54.332;10.118;2023-11-19T09:56:21;11.50;99.90
8892;DHT22;4482;54.332;10.118;2023-11-19T09:58:48;11.70;99.90
8892;DHT22;4482;54.332;10.118;2023-11-19T10:01:14;11.80;99.90
8892;DHT22;4482;54.332;10.118;2023-11-19T10:03:41;11.80;99.90
8892;DHT22;4482;54.332;10.118;2023-11-19T10:06:09;11.70;99.90
8892;DHT22;4482;54.332;10.118;2023-11-19T10:08:36;11.70;99.90
8892;DHT22;4482;54.332;10.118;2023-11-19T10:11:04;11.60;99.90
8892;DHT22;4482;54.332;10.118;2023-11-19T10:13:32;11.60;99.90
8892;DHT22;4482;54.332;10.118;2023-11-19T10:16:03;11.60;99.90
8892;DHT22;4482;54.332;10.118;2023-11-19T10:18:31;11.50;99.90
8892;DHT22;4482;54.332;10.118;2023-11-19T10:21:03;11.50;99.90
8892;DHT22;4482;54.332;10.118;2023-11-19T10:23:30;11.50;99.90
8892;DHT22;4482;54.332;10.118;2023-11-19T10:26:01;11.50;99.90
8892;DHT22;4482;54.332;10.118;2023-11-19T10:28:36;11.50;99.90
8892;DHT22;4482;54.332;10.118;2023-11-19T10:31:05;11.50;99.90
8892;DHT22;4482;54.332;10.118;2023-11-19T10:33:32;11.60;99.90
8892;DHT22;4482;54.332;10.118;2023-11-19T10:35:59;11.60;99.90
8892;DHT22;4482;54.332;10.118;2023-11-19T10:38:25;11.80;99.90
8892;DHT22;4482;54.332;10.118;2023-11-19T10:40:52;11.90;99.90
8892;DHT22;4482;54.332;10.118;2023-11-19T10:43:20;11.90;99.90
8892;DHT22;4482;54.332;10.118;2023-11-19T10:45:49;12.00;99.90
8892;DHT22;4482;54.332;10.118;2023-11-19T10:48:16;11.90;99.90
8892;DHT22;4482;54.332;10.118;2023-11-19T10:50:43;11.80;99.90
8892;DHT22;4482;54.332;10.118;2023-11-19T10:53:10;11.90;99.90
8892;DHT22;4482;54.332;10.118;2023-11-19T10:55:38;12.00;99.90
8892;DHT22;4482;54.332;10.118;2023-11-19T10:58:05;12.10;99.90
8892;DHT22;4482;54.332;10.118;2023-11-19T11:00:34;12.20;99.90
8892;DHT22;4482;54.332;10.118;2023-11-19T11:03:08;12.10;99.90
8892;DHT22;4482;54.332;10.118;2023-11-19T11:05:36;12.10;99.90
8892;DHT22;4482;54.332;10.118;2023-11-19T11:08:04;12.10;99.90
8892;DHT22;4482;54.332;10.118;2023-11-19T11:10:34;12.10;99.90
8892;DHT22;4482;54.332;10.118;2023-11-19T11:13:02;12.10;99.90
8892;DHT22;4482;54.332;10.118;2023-11-19T11:15:29;12.30;99.90
8892;DHT22;4482;54.332;10.118;2023-11-19T11:17:57;12.30;99.90
8892;DHT22;4482;54.332;10.118;2023-11-19T11:20:27;12.30;99.90
8892;DHT22;4482;54.332;10.118;2023-11-19T11:22:58;12.30;99.90
8892;DHT22;4482;54.332;10.118;2023-11-19T11:25:33;12.30;99.90
8892;DHT22;4482;54.332;10.118;2023-11-19T11:28:10;12.10;99.90
8892;DHT22;4482;54.332;10.118;2023-11-19T11:30:45;12.00;99.90
8892;DHT22;4482;54.332;10.118;2023-11-19T11:33:20;11.90;99.90
8892;DHT22;4482;54.332;10.118;2023-11-19T11:35:53;11.90;99.90
8892;DHT22;4482;54.332;10.118;2023-11-19T11:38:22;11.90;99.90
8892;DHT22;4482;54.332;10.118;2023-11-19T11:43:49;12.10;99.90
8892;DHT22;4482;54.332;10.118;2023-11-19T11:49:02;12.00;99.90
8892;DHT22;4482;54.332;10.118;2023-11-19T11:54:14;12.00;99.90
8892;DHT22;4482;54.332;10.118;2023-11-19T11:57:00;12.00;99.90
8892;DHT22;4482;54.332;10.118;2023-11-19T11:59:31;11.90;99.90
8892;DHT22;4482;54.332;10.118;2023-11-19T12:01:58;11.90;99.90
8892;DHT22;4482;54.332;10.118;2023-11-19T12:04:25;11.90;99.90
8892;DHT22;4482;54.332;10.118;2023-11-19T12:07:02;11.90;99.90
8892;DHT22;4482;54.332;10.118;2023-11-19T12:09:30;12.00;99.90
8892;DHT22;4482;54.332;10.118;2023-11-19T12:12:06;12.10;99.90
8892;DHT22;4482;54.332;10.118;2023-11-19T12:17:35;11.90;99.90
8892;DHT22;4482;54.332;10.118;2023-11-19T12:20:05;11.80;99.90
8892;DHT22;4482;54.332;10.118;2023-11-19T12:22:34;11.70;99.90
8892;DHT22;4482;54.332;10.118;2023-11-19T12:25:02;11.60;99.90
8892;DHT22;4482;54.332;10.118;2023-11-19T12:27:31;11.60;99.90
8892;DHT22;4482;54.332;10.118;2023-11-19T12:29:59;11.70;99.90
8892;DHT22;4482;54.332;10.118;2023-11-19T12:32:25;11.70;99.90
8892;DHT22;4482;54.332;10.118;2023-11-19T12:34:52;11.70;99.90
8892;DHT22;4482;54.332;10.118;2023-11-19T12:37:19;11.70;99.90
8892;DHT22;4482;54.332;10.118;2023-11-19T12:39:46;11.80;99.90
8892;DHT22;4482;54.332;10.118;2023-11-19T12:42:14;11.80;99.90
8892;DHT22;4482;54.332;10.118;2023-11-19T12:44:53;11.80;99.90
8892;DHT22;4482;54.332;10.118;2023-11-19T12:47:19;11.80;99.90
8892;DHT22;4482;54.332;10.118;2023-11-19T12:49:54;11.80;99.90
8892;DHT22;4482;54.332;10.118;2023-11-19T12:52:21;11.80;99.90
8892;DHT22;4482;54.332;10.118;2023-11-19T12:54:48;11.80;99.90
8892;DHT22;4482;54.332;10.118;2023-11-19T12:57:16;11.80;99.90
8892;DHT22;4482;54.332;10.118;2023-11-19T12:59:54;11.80;99.90
8892;DHT22;4482;54.332;10.118;2023-11-19T13:02:21;11.80;99.90
8892;DHT22;4482;54.332;10.118;2023-11-19T13:04:48;11.90;99.90
8892;DHT22;4482;54.332;10.118;2023-11-19T13:07:20;11.80;99.90
8892;DHT22;4482;54.332;10.118;2023-11-19T13:09:46;12.00;99.90
8892;DHT22;4482;54.332;10.118;2023-11-19T13:12:13;11.90;99.90
8892;DHT22;4482;54.332;10.118;2023-11-19T13:14:42;11.90;99.90
8892;DHT22;4482;54.332;10.118;2023-11-19T13:17:12;11.80;99.90
8892;DHT22;4482;54.332;10.118;2023-11-19T13:19:39;11.90;99.90
8892;DHT22;4482;54.332;10.118;2023-11-19T13:22:05;11.90;99.90
8892;DHT22;4482;54.332;10.118;2023-11-19T13:24:32;11.80;99.90
8892;DHT22;4482;54.332;10.118;2023-11-19T13:26:58;11.80;99.90
8892;DHT22;4482;54.332;10.118;2023-11-19T13:29:25;11.80;99.90
8892;DHT22;4482;54.332;10.118;2023-11-19T13:31:53;11.80;99.90
8892;DHT22;4482;54.332;10.118;2023-11-19T13:34:20;11.90;99.90
8892;DHT22;4482;54.332;10.118;2023-11-19T13:36:46;11.90;99.90
8892;DHT22;4482;54.332;10.118;2023-11-19T13:39:13;11.90;99.90
8892;DHT22;4482;54.332;10.118;2023-11-19T13:41:48;12.00;99.90
8892;DHT22;4482;54.332;10.118;2023-11-19T13:44:15;11.90;99.90
8892;DHT22;4482;54.332;10.118;2023-11-19T13:46:44;11.90;99.90
8892;DHT22;4482;54.332;10.118;2023-11-19T13:49:12;11.80;99.90
8892;DHT22;4482;54.332;10.118;2023-11-19T13:51:38;11.80;99.90
8892;DHT22;4482;54.332;10.118;2023-11-19T13:54:05;11.80;99.90
8892;DHT22;4482;54.332;10.118;2023-11-19T13:56:32;11.80;99.90
8892;DHT22;4482;54.332;10.118;2023-11-19T13:58:59;11.70;99.90
8892;DHT22;4482;54.332;10.118;2023-11-19T14:01:25;11.70;99.90
8892;DHT22;4482;54.332;10.118;2023-11-19T14:03:52;11.70;99.90
8892;DHT22;4482;54.332;10.118;2023-11-19T14:06:20;11.60;99.90
8892;DHT22;4482;54.332;10.118;2023-11-19T14:08:47;11.70;99.90
8892;DHT22;4482;54.332;10.118;2023-11-19T14:11:13;11.70;99.90
8892;DHT22;4482;54.332;10.118;2023-11-19T14:13:41;11.60;99.90
8892;DHT22;4482;54.332;10.118;2023-11-19T14:16:08;11.60;99.90
8892;DHT22;4482;54.332;10.118;2023-11-19T14:18:34;11.60;99.90
8892;DHT22;4482;54.332;10.118;2023-11-19T14:21:01;11.60;99.90
8892;DHT22;4482;54.332;10.118;2023-11-19T14:23:30;11.60;99.90
8892;DHT22;4482;54.332;10.118;2023-11-19T14:25:56;11.60;99.90
8892;DHT22;4482;54.332;10.118;2023-11-19T14:28:23;11.70;99.90
8892;DHT22;4482;54.332;10.118;2023-11-19T14:30:51;11.70;99.90
8892;DHT22;4482;54.332;10.118;2023-11-19T14:33:22;11.70;99.90
8892;DHT22;4482;54.332;10.118;2023-11-19T14:35:49;11.60;99.90
8892;DHT22;4482;54.332;10.118;2023-11-19T14:38:15;11.50;99.90
8892;DHT22;4482;54.332;10.118;2023-11-19T14:40:43;11.50;99.90
8892;DHT22;4482;54.332;10.118;2023-11-19T14:43:10;11.50;99.90
8892;DHT22;4482;54.332;10.118;2023-11-19T14:45:36;11.50;99.90
8892;DHT22;4482;54.332;10.118;2023-11-19T14:48:03;11.50;99.90
8892;DHT22;4482;54.332;10.118;2023-11-19T14:50:30;11.50;99.90
8892;DHT22;4482;54.332;10.118;2023-11-19T14:52:57;11.50;99.90
8892;DHT22;4482;54.332;10.118;2023-11-19T14:55:23;11.40;99.90
8892;DHT22;4482;54.332;10.118;2023-11-19T14:57:53;11.50;99.90
8892;DHT22;4482;54.332;10.118;2023-11-19T15:00:19;11.50;99.90
8892;DHT22;4482;54.332;10.118;2023-11-19T15:02:46;11.40;99.90
8892;DHT22;4482;54.332;10.118;2023-11-19T15:05:13;11.40;99.90
8892;DHT22;4482;54.332;10.118;2023-11-19T15:07:40;11.40;99.90
8892;DHT22;4482;54.332;10.118;2023-11-19T15:10:07;11.40;99.90
8892;DHT22;4482;54.332;10.118;2023-11-19T15:12:36;11.40;99.90
8892;DHT22;4482;54.332;10.118;2023-11-19T15:15:08;11.40;99.90
8892;DHT22;4482;54.332;10.118;2023-11-19T15:17:38;11.40;99.90
8892;DHT22;4482;54.332;10.118;2023-11-19T15:20:05;11.40;99.90
8892;DHT22;4482;54.332;10.118;2023-11-19T15:22:32;11.40;99.90
8892;DHT22;4482;54.332;10.118;2023-11-19T15:24:59;11.30;99.90
8892;DHT22;4482;54.332;10.118;2023-11-19T15:27:25;11.20;99.90
8892;DHT22;4482;54.332;10.118;2023-11-19T15:29:52;11.20;99.90
8892;DHT22;4482;54.332;10.118;2023-11-19T15:32:20;11.20;99.90
8892;DHT22;4482;54.332;10.118;2023-11-19T15:34:47;11.10;99.90
8892;DHT22;4482;54.332;10.118;2023-11-19T15:37:13;11.10;99.90
8892;DHT22;4482;54.332;10.118;2023-11-19T15:39:40;11.10;99.90
8892;DHT22;4482;54.332;10.118;2023-11-19T15:42:07;11.00;99.90
8892;DHT22;4482;54.332;10.118;2023-11-19T15:44:35;11.10;99.90
8892;DHT22;4482;54.332;10.118;2023-11-19T15:47:02;11.10;99.90
8892;DHT22;4482;54.332;10.118;2023-11-19T15:49:31;11.10;99.90
8892;DHT22;4482;54.332;10.118;2023-11-19T15:51:57;11.10;99.90
8892;DHT22;4482;54.332;10.118;2023-11-19T15:54:25;11.10;99.90
8892;DHT22;4482;54.332;10.118;2023-11-19T15:56:51;11.00;99.90
8892;DHT22;4482;54.332;10.118;2023-11-19T15:59:18;11.00;99.90
8892;DHT22;4482;54.332;10.118;2023-11-19T16:01:46;11.00;99.90
8892;DHT22;4482;54.332;10.118;2023-11-19T16:04:12;11.00;99.90
8892;DHT22;4482;54.332;10.118;2023-11-19T16:06:40;11.00;99.90
8892;DHT22;4482;54.332;10.118;2023-11-19T16:09:07;11.10;99.90